Time;durP1;ratioP1;P1;durP2;ratioP2;P2;SDS_P1;SDS_P2;PMS_P1;PMS_P2;Temp;Humidity;BMP_temperature;BMP_pressure;BME280_temperature;BME280_humidity;BME280_pressure;Samples;Min_cycle;Max_cycle;Signal;HPM_P1;HPM_P2
2022/10/06 00:01:25;;;;;;;8.40;1.90;;;20.60;99.90;;;;;;5037245;28;20119;-74
2022/10/06 00:03:52;;;;;;;7.03;1.67;;;20.60;99.90;;;;;;5057186;28;20037;-76
2022/10/06 00:06:18;;;;;;;7.55;1.92;;;20.60;99.90;;;;;;5061208;28;20147;-77
2022/10/06 00:08:46;;;;;;;4.93;1.50;;;20.60;99.90;;;;;;5059991;28;20094;-77
2022/10/06 00:11:13;;;;;;;4.60;1.27;;;20.60;99.90;;;;;;5058335;28;20048;-76
2022/10/06 00:13:40;;;;;;;6.90;1.38;;;20.60;99.90;;;;;;5071926;28;20036;-76
2022/10/06 00:16:16;;;;;;;6.80;1.45;;;20.60;99.90;;;;;;5057415;28;20136;-76
2022/10/06 00:18:42;;;;;;;5.18;1.35;;;20.50;99.90;;;;;;5053977;28;20052;-76
2022/10/06 00:21:09;;;;;;;6.28;1.23;;;20.50;99.90;;;;;;5040051;28;20846;-76
2022/10/06 00:23:35;;;;;;;5.65;1.40;;;20.50;99.90;;;;;;5035964;28;20036;-77
2022/10/06 00:26:01;;;;;;;7.40;1.42;;;20.50;99.90;;;;;;5040223;28;20540;-76
2022/10/06 00:28:27;;;;;;;4.22;1.60;;;20.40;99.90;;;;;;5053049;28;20044;-77
2022/10/06 00:30:55;;;;;;;5.65;1.55;;;20.40;99.90;;;;;;5048535;28;20432;-76
2022/10/06 00:33:22;;;;;;;8.65;1.90;;;20.40;99.90;;;;;;5065152;28;20033;-76
2022/10/06 00:35:56;;;;;;;5.60;1.63;;;20.30;99.90;;;;;;5057978;28;20025;-78
2022/10/06 00:38:22;;;;;;;4.75;1.30;;;20.40;99.90;;;;;;5060385;28;20044;-77
2022/10/06 00:40:49;;;;;;;5.28;1.38;;;20.40;99.90;;;;;;5041551;28;20032;-77
2022/10/06 00:43:43;;;;;;;5.40;1.40;;;20.40;99.90;;;;;;5062358;28;20041;-77
2022/10/06 00:46:33;;;;;;;7.47;1.40;;;20.50;99.90;;;;;;5061169;28;20024;-77
2022/10/06 00:49:15;;;;;;;4.05;1.25;;;20.50;99.90;;;;;;5052689;28;20093;-78
2022/10/06 00:51:50;;;;;;;4.85;1.20;;;20.50;99.90;;;;;;5048518;28;20033;-77
2022/10/06 00:54:16;;;;;;;4.68;1.25;;;20.50;99.90;;;;;;5060368;28;20071;-77
2022/10/06 00:56:42;;;;;;;4.65;1.30;;;20.50;99.90;;;;;;5061900;28;20040;-78
2022/10/06 00:59:14;;;;;;;6.80;1.70;;;20.50;99.90;;;;;;5041427;28;20032;-78
2022/10/06 01:01:45;;;;;;;5.93;1.20;;;20.50;99.90;;;;;;5062148;28;20050;-77
2022/10/06 01:04:16;;;;;;;4.22;1.23;;;20.40;99.90;;;;;;5063075;28;20483;-77
2022/10/06 01:06:45;;;;;;;4.95;1.23;;;20.40;99.90;;;;;;5055653;28;20033;-77
2022/10/06 01:09:15;;;;;;;6.13;1.25;;;20.40;99.90;;;;;;5075230;28;20037;-77
2022/10/06 01:11:41;;;;;;;3.47;1.00;;;20.50;99.90;;;;;;5062498;28;20052;-77
2022/10/06 01:14:07;;;;;;;4.82;1.27;;;20.50;99.90;;;;;;5057262;28;20486;-77
2022/10/06 01:16:38;;;;;;;5.45;1.38;;;20.50;99.90;;;;;;5064871;28;20039;-77
2022/10/06 01:19:15;;;;;;;5.65;1.55;;;20.40;99.90;;;;;;5057898;28;20048;-78
2022/10/06 01:21:46;;;;;;;5.82;1.33;;;20.30;99.90;;;;;;5059202;28;20488;-77
2022/10/06 01:24:12;;;;;;;4.38;1.70;;;20.30;99.90;;;;;;5059407;28;20041;-78
2022/10/06 01:26:43;;;;;;;6.15;1.58;;;20.30;99.90;;;;;;5063077;28;20048;-78
2022/10/06 01:29:09;;;;;;;5.97;1.33;;;20.30;99.90;;;;;;5046957;28;20045;-79
2022/10/06 01:31:36;;;;;;;7.90;1.70;;;20.30;99.90;;;;;;5072649;28;20037;-77
2022/10/06 01:34:03;;;;;;;7.00;1.98;;;20.30;99.90;;;;;;5061794;28;20119;-77
2022/10/06 01:36:29;;;;;;;7.40;1.58;;;20.20;99.90;;;;;;5059526;28;20040;-77
2022/10/06 01:38:54;;;;;;;5.97;1.23;;;20.30;99.90;;;;;;5060531;28;20500;-77
2022/10/06 01:41:21;;;;;;;5.88;1.33;;;20.30;99.90;;;;;;5058717;28;20055;-77
2022/10/06 01:43:47;;;;;;;4.75;1.42;;;20.40;99.90;;;;;;5059967;28;20041;-78
2022/10/06 01:46:14;;;;;;;5.38;1.65;;;20.40;99.90;;;;;;5057233;28;20066;-77
2022/10/06 01:48:39;;;;;;;;;;;20.40;99.90;;;;;;5058085;28;20582;-77
2022/10/06 01:51:07;;;;;;;5.68;1.25;;;20.40;99.90;;;;;;5055396;28;19928;-77
2022/10/06 01:53:34;;;;;;;5.13;1.20;;;20.30;99.90;;;;;;5054202;28;20040;-77
2022/10/06 01:56:00;;;;;;;10.15;1.90;;;20.20;99.90;;;;;;5064869;28;20044;-77
2022/10/06 01:58:26;;;;;;;4.75;1.40;;;20.20;99.90;;;;;;5070265;28;20496;-77
2022/10/06 02:00:53;;;;;;;6.47;1.10;;;20.20;99.90;;;;;;5064188;28;20130;-77
2022/10/06 02:03:19;;;;;;;6.15;1.33;;;20.10;99.90;;;;;;5044830;28;20069;-76
2022/10/06 02:05:45;;;;;;;6.13;1.45;;;20.10;99.90;;;;;;5061742;28;20032;-77
2022/10/06 02:08:12;;;;;;;6.82;1.50;;;20.10;99.90;;;;;;5064170;28;20032;-77
2022/10/06 02:10:38;;;;;;;4.20;1.33;;;20.00;99.90;;;;;;5060683;28;20027;-77
2022/10/06 02:13:04;;;;;;;4.07;1.17;;;20.10;99.90;;;;;;5059801;28;20348;-77
2022/10/06 02:15:32;;;;;;;5.90;1.00;;;20.10;99.90;;;;;;5059020;28;20036;-77
2022/10/06 02:17:58;;;;;;;7.43;1.70;;;20.00;99.90;;;;;;5060218;28;20040;-78
2022/10/06 02:20:25;;;;;;;5.07;1.00;;;20.00;99.90;;;;;;5071960;28;20025;-78
2022/10/06 02:22:50;;;;;;;5.60;1.33;;;20.00;99.90;;;;;;5056963;28;20028;-77
2022/10/06 02:25:17;;;;;;;5.13;1.33;;;20.00;99.90;;;;;;5067772;28;20029;-78
2022/10/06 02:27:43;;;;;;;6.30;1.33;;;20.00;99.90;;;;;;5059300;28;20042;-78
2022/10/06 02:30:13;;;;;;;5.25;1.05;;;20.00;99.90;;;;;;5060314;28;20064;-77
2022/10/06 02:32:41;;;;;;;6.25;1.30;;;20.00;99.90;;;;;;5055998;28;20028;-77
2022/10/06 02:35:09;;;;;;;4.63;1.10;;;20.00;99.90;;;;;;5074267;28;20060;-77
2022/10/06 02:37:35;;;;;;;6.43;1.23;;;20.00;99.90;;;;;;5058870;28;20048;-77
2022/10/06 02:40:01;;;;;;;5.53;1.40;;;19.90;99.90;;;;;;5058941;28;20041;-76
2022/10/06 02:42:27;;;;;;;5.68;1.35;;;19.90;99.90;;;;;;5061473;28;20033;-77
2022/10/06 02:44:53;;;;;;;6.88;1.25;;;19.90;99.90;;;;;;5075993;28;20040;-77
2022/10/06 02:47:21;;;;;;;8.20;1.65;;;19.90;99.90;;;;;;5075198;28;20086;-78
2022/10/06 02:49:47;;;;;;;8.98;1.67;;;19.90;99.90;;;;;;5057840;28;20041;-77
2022/10/06 02:52:14;;;;;;;6.63;1.13;;;19.90;99.90;;;;;;5062525;28;20044;-77
2022/10/06 02:54:41;;;;;;;3.72;1.48;;;19.90;99.90;;;;;;5062993;28;20494;-78
2022/10/06 02:57:08;;;;;;;5.97;1.17;;;19.90;99.90;;;;;;5060089;28;20506;-77
2022/10/06 02:59:35;;;;;;;5.38;1.20;;;19.80;99.90;;;;;;5059767;28;20593;-77
2022/10/06 03:02:01;;;;;;;4.10;1.23;;;19.80;99.90;;;;;;5056612;28;20151;-77
2022/10/06 03:04:27;;;;;;;4.38;1.40;;;19.80;99.90;;;;;;5042580;28;20045;-76
2022/10/06 03:06:53;;;;;;;6.38;1.30;;;19.80;99.90;;;;;;5039825;28;20060;-76
2022/10/06 03:09:19;;;;;;;6.13;1.30;;;19.70;99.90;;;;;;5058553;28;20052;-77
2022/10/06 03:11:45;;;;;;;4.25;1.05;;;19.70;99.90;;;;;;5064800;28;20047;-76
2022/10/06 03:14:11;;;;;;;4.22;1.08;;;19.70;99.90;;;;;;5058067;28;20048;-77
2022/10/06 03:16:42;;;;;;;4.43;1.35;;;19.70;99.90;;;;;;5059805;28;20041;-77
2022/10/06 03:19:09;;;;;;;5.18;1.20;;;19.60;99.90;;;;;;5056524;28;20119;-77
2022/10/06 03:21:40;;;;;;;5.97;1.38;;;19.60;99.90;;;;;;5059550;28;20048;-77
2022/10/06 03:24:08;;;;;;;4.30;1.10;;;19.60;99.90;;;;;;5055504;28;20045;-77
2022/10/06 03:26:41;;;;;;;4.07;1.30;;;19.60;99.90;;;;;;5052400;28;20029;-77
2022/10/06 03:29:07;;;;;;;5.07;1.23;;;19.70;99.90;;;;;;5050580;28;20029;-78
2022/10/06 03:31:33;;;;;;;7.63;1.45;;;19.60;99.90;;;;;;5061023;28;20127;-77
2022/10/06 03:33:59;;;;;;;4.70;1.50;;;19.60;99.90;;;;;;5055428;28;20033;-77
2022/10/06 03:36:31;;;;;;;6.97;1.10;;;19.60;99.90;;;;;;5052709;28;20043;-77
2022/10/06 03:38:58;;;;;;;5.68;1.48;;;19.60;99.90;;;;;;5055537;28;20041;-77
2022/10/06 03:41:30;;;;;;;3.80;1.10;;;19.60;99.90;;;;;;5056309;28;20403;-77
2022/10/06 03:43:57;;;;;;;6.38;1.60;;;19.60;99.90;;;;;;5071340;28;20033;-76
2022/10/06 03:46:29;;;;;;;7.13;1.60;;;19.50;99.90;;;;;;5054601;28;20139;-77
2022/10/06 03:48:56;;;;;;;6.20;1.85;;;19.60;99.90;;;;;;5057656;28;20376;-76
2022/10/06 03:51:26;;;;;;;9.27;1.70;;;19.60;99.90;;;;;;5055315;28;20050;-77
2022/10/06 03:53:52;;;;;;;5.72;1.50;;;19.60;99.90;;;;;;5054358;28;20071;-77
2022/10/06 03:56:22;;;;;;;5.47;1.42;;;19.60;99.90;;;;;;5055762;28;20044;-77
2022/10/06 03:58:54;;;;;;;6.07;1.30;;;19.70;99.90;;;;;;5073480;28;20036;-77
2022/10/06 04:01:28;;;;;;;7.50;1.50;;;19.60;99.90;;;;;;5060844;28;20056;-77
2022/10/06 04:03:55;;;;;;;5.43;1.23;;;19.70;99.90;;;;;;5061068;28;20053;-78
2022/10/06 04:06:25;;;;;;;4.88;1.30;;;19.70;99.90;;;;;;5073615;28;20033;-78
2022/10/06 04:08:52;;;;;;;5.03;1.88;;;19.70;99.90;;;;;;5061188;28;20946;-77
2022/10/06 04:11:27;;;;;;;6.57;1.65;;;19.70;99.90;;;;;;5065436;28;20045;-77
2022/10/06 04:13:59;;;;;;;10.23;2.25;;;19.70;99.90;;;;;;5052035;28;20115;-78
2022/10/06 04:16:30;;;;;;;5.45;1.40;;;19.70;99.90;;;;;;5061152;28;20037;-77
2022/10/06 04:18:57;;;;;;;8.50;1.92;;;19.80;99.90;;;;;;5062179;28;20042;-77
2022/10/06 04:21:24;;;;;;;5.35;2.13;;;19.80;99.90;;;;;;5064527;28;20041;-78
2022/10/06 04:23:56;;;;;;;7.72;1.48;;;19.80;99.90;;;;;;5063650;28;20558;-77
2022/10/06 04:26:25;;;;;;;5.00;1.20;;;19.80;99.90;;;;;;5068947;28;20044;-77
2022/10/06 04:28:51;;;;;;;5.05;1.63;;;19.80;99.90;;;;;;5043671;28;20455;-77
2022/10/06 04:31:29;;;;;;;6.55;1.55;;;19.80;99.90;;;;;;5062456;28;20064;-77
2022/10/06 04:33:57;;;;;;;5.82;1.50;;;19.70;99.90;;;;;;5060809;28;20091;-77
2022/10/06 04:36:25;;;;;;;5.72;2.05;;;19.70;99.90;;;;;;5064402;28;20052;-77
2022/10/06 04:38:55;;;;;;;4.22;1.20;;;19.70;99.90;;;;;;5049813;28;20090;-77
2022/10/06 04:41:22;;;;;;;4.13;1.35;;;19.60;99.90;;;;;;5061301;28;20110;-78
2022/10/06 04:43:50;;;;;;;5.03;1.40;;;19.70;99.90;;;;;;5052999;28;20058;-77
2022/10/06 04:46:18;;;;;;;5.70;1.55;;;19.70;99.90;;;;;;5056942;28;20033;-77
2022/10/06 04:48:43;;;;;;;7.57;1.65;;;19.70;99.90;;;;;;5060314;28;20037;-78
2022/10/06 04:51:15;;;;;;;6.93;1.50;;;19.70;99.90;;;;;;5058240;28;20127;-77
2022/10/06 04:53:45;;;;;;;6.30;1.88;;;19.70;99.90;;;;;;5060339;28;20047;-77
2022/10/06 04:56:17;;;;;;;6.80;1.75;;;19.60;99.90;;;;;;5058744;28;20033;-77
2022/10/06 04:58:48;;;;;;;7.40;1.55;;;19.60;99.90;;;;;;5059423;28;20037;-77
2022/10/06 05:01:22;;;;;;;6.00;1.80;;;19.60;99.90;;;;;;5059624;28;20033;-77
2022/10/06 05:03:52;;;;;;;4.72;1.65;;;19.60;99.90;;;;;;5049904;28;20037;-77
2022/10/06 05:06:20;;;;;;;6.45;1.67;;;19.50;99.90;;;;;;5062145;28;20033;-77
2022/10/06 05:08:48;;;;;;;4.45;1.33;;;19.60;99.90;;;;;;5061450;28;20044;-78
2022/10/06 05:11:14;;;;;;;5.30;1.48;;;19.50;99.90;;;;;;5060652;28;20523;-78
2022/10/06 05:13:40;;;;;;;6.28;2.13;;;19.60;99.90;;;;;;5066039;28;20387;-78
2022/10/06 05:16:07;;;;;;;5.57;1.70;;;19.50;99.90;;;;;;5049227;28;20048;-78
2022/10/06 05:18:35;;;;;;;6.50;1.85;;;19.50;99.90;;;;;;5066662;28;20032;-78
2022/10/06 05:21:21;;;;;;;5.95;1.38;;;19.50;99.90;;;;;;5066234;28;20040;-78
2022/10/06 05:23:47;;;;;;;4.75;1.45;;;19.50;99.90;;;;;;5063178;28;20496;-78
2022/10/06 05:26:19;;;;;;;5.80;1.40;;;19.50;99.90;;;;;;5074956;28;20115;-77
2022/10/06 05:28:45;;;;;;;9.10;1.65;;;19.50;99.90;;;;;;5060296;28;20043;-78
2022/10/06 05:31:14;;;;;;;7.13;1.67;;;19.40;99.90;;;;;;5064662;28;20040;-77
2022/10/06 05:33:40;;;;;;;5.10;1.80;;;19.40;99.90;;;;;;5063482;28;20036;-77
2022/10/06 05:36:15;;;;;;;6.80;1.63;;;19.40;99.90;;;;;;5058112;28;20119;-77
2022/10/06 05:38:42;;;;;;;4.93;1.35;;;19.40;99.90;;;;;;5076848;28;20039;-78
2022/10/06 05:41:16;;;;;;;6.70;1.58;;;19.40;99.90;;;;;;5055526;28;20120;-76
2022/10/06 05:43:42;;;;;;;5.05;1.30;;;19.40;99.90;;;;;;5067574;28;20047;-79
2022/10/06 05:46:19;;;;;;;;;;;19.40;99.90;;;;;;5075686;28;20083;-77
2022/10/06 05:48:47;;;;;;;8.15;1.55;;;19.40;99.90;;;;;;5058964;28;19917;-77
2022/10/06 05:51:14;;;;;;;7.25;2.05;;;19.40;99.90;;;;;;5059390;28;20033;-77
2022/10/06 05:53:40;;;;;;;5.72;1.60;;;19.40;99.90;;;;;;5062169;28;20040;-77
2022/10/06 05:56:14;;;;;;;6.95;1.60;;;19.40;99.90;;;;;;5056377;28;20044;-77
2022/10/06 05:58:42;;;;;;;7.25;2.17;;;19.40;99.90;;;;;;5053736;28;20033;-78
2022/10/06 06:01:20;;;;;;;5.15;1.70;;;19.40;99.90;;;;;;5055690;28;20041;-78
2022/10/06 06:03:49;;;;;;;6.25;2.00;;;19.40;99.90;;;;;;5059299;28;20041;-78
2022/10/06 06:06:21;;;;;;;7.32;1.88;;;19.40;99.90;;;;;;5060264;28;20384;-78
2022/10/06 06:08:51;;;;;;;7.65;1.90;;;19.40;99.90;;;;;;5063692;28;20375;-79
2022/10/06 06:11:17;;;;;;;5.38;1.67;;;19.40;99.90;;;;;;5059232;28;20083;-78
2022/10/06 06:13:42;;;;;;;6.82;1.77;;;19.50;99.90;;;;;;5072694;28;20040;-78
2022/10/06 06:16:13;;;;;;;8.80;1.83;;;19.50;99.90;;;;;;5055912;28;20048;-78
2022/10/06 06:18:40;;;;;;;6.53;1.80;;;19.50;99.90;;;;;;5065377;28;20045;-78
2022/10/06 06:21:08;;;;;;;8.02;1.88;;;19.50;99.90;;;;;;5064397;28;20032;-77
2022/10/06 06:23:40;;;;;;;5.15;1.98;;;19.50;99.90;;;;;;5061168;28;20044;-78
2022/10/06 06:26:08;;;;;;;6.05;1.80;;;19.50;99.90;;;;;;5056504;28;20052;-77
2022/10/06 06:28:35;;;;;;;7.72;2.03;;;19.60;99.90;;;;;;5054400;28;20131;-78
2022/10/06 06:31:12;;;;;;;5.88;2.40;;;19.60;99.90;;;;;;5058117;28;20036;-77
2022/10/06 06:33:39;;;;;;;6.78;2.15;;;19.60;99.90;;;;;;5050987;28;20561;-78
2022/10/06 06:36:13;;;;;;;7.80;2.15;;;19.60;99.90;;;;;;5062460;28;20033;-78
2022/10/06 06:38:39;;;;;;;8.35;1.98;;;19.60;99.90;;;;;;5059690;28;20484;-78
2022/10/06 06:41:15;;;;;;;;;;;19.60;99.90;;;;;;5055892;28;20484;-79
2022/10/06 06:43:42;;;;;;;9.23;2.13;;;19.60;99.90;;;;;;5062005;28;20005;-78
2022/10/06 06:46:08;;;;;;;9.35;1.85;;;19.70;99.90;;;;;;5060403;28;20033;-77
2022/10/06 06:48:37;;;;;;;8.77;2.63;;;19.70;99.90;;;;;;5059057;28;20074;-78
2022/10/06 06:51:04;;;;;;;9.95;4.55;;;19.70;99.90;;;;;;5059280;28;20025;-78
2022/10/06 06:53:30;;;;;;;;;;;19.70;99.90;;;;;;5039192;28;20037;-78
2022/10/06 06:55:56;;;;;;;7.00;2.30;;;19.70;99.90;;;;;;5047747;28;19913;-78
2022/10/06 06:58:23;;;;;;;9.30;2.60;;;19.70;99.90;;;;;;5062267;28;20649;-78
2022/10/06 07:00:48;;;;;;;7.45;2.35;;;19.80;99.90;;;;;;5060388;28;20085;-77
2022/10/06 07:03:18;;;;;;;6.57;2.05;;;19.90;99.90;;;;;;5039693;28;20453;-78
2022/10/06 07:05:45;;;;;;;7.65;2.03;;;19.80;99.90;;;;;;5034862;28;20033;-77
2022/10/06 07:08:14;;;;;;;6.35;2.10;;;19.80;99.90;;;;;;5034255;28;20041;-78
2022/10/06 07:10:42;;;;;;;6.47;2.05;;;19.80;99.90;;;;;;5036679;28;20124;-78
2022/10/06 07:13:15;;;;;;;8.52;2.38;;;19.90;99.90;;;;;;5034323;28;20056;-79
2022/10/06 07:26:55;;;;;;;6.75;2.10;;;19.90;99.90;;;;;;5041598;28;20109;-78
2022/10/06 07:29:21;;;;;;;7.60;1.95;;;20.00;99.90;;;;;;5037389;28;20053;-79
2022/10/06 07:31:47;;;;;;;6.82;2.10;;;20.00;99.90;;;;;;5038760;28;20048;-78
2022/10/06 07:34:13;;;;;;;7.40;2.33;;;20.00;99.90;;;;;;5038628;28;20128;-77
2022/10/06 07:36:38;;;;;;;9.30;3.35;;;20.10;99.90;;;;;;5042689;28;20033;-77
2022/10/06 07:39:05;;;;;;;7.85;2.63;;;20.20;99.90;;;;;;5070588;28;20052;-77
2022/10/06 07:41:33;;;;;;;6.45;2.10;;;20.30;99.90;;;;;;5063419;28;20025;-77
2022/10/06 07:44:03;;;;;;;6.88;2.17;;;20.40;99.90;;;;;;5061234;28;20044;-78
2022/10/06 07:46:30;;;;;;;7.50;2.10;;;20.50;99.90;;;;;;5061538;28;20041;-77
2022/10/06 07:48:55;;;;;;;7.22;2.53;;;20.70;99.90;;;;;;5075149;28;20452;-77
2022/10/06 07:51:23;;;;;;;8.57;2.33;;;20.80;99.90;;;;;;5073984;28;20182;-71
2022/10/06 07:53:49;;;;;;;20.35;10.90;;;20.90;99.90;;;;;;5056572;28;20426;-77
2022/10/06 07:56:19;;;;;;;10.82;2.65;;;21.00;99.90;;;;;;5071635;28;20084;-77
2022/10/06 07:58:48;;;;;;;5.80;2.20;;;21.10;99.90;;;;;;5057160;28;20182;-78
2022/10/06 08:01:16;;;;;;;10.10;2.17;;;21.20;99.90;;;;;;5042601;28;20044;-79
2022/10/06 08:03:44;;;;;;;8.68;2.67;;;21.30;99.90;;;;;;5062228;28;20134;-76
2022/10/06 08:06:11;;;;;;;8.35;2.40;;;21.40;99.90;;;;;;5057717;28;20472;-76
2022/10/06 08:08:37;;;;;;;9.38;2.40;;;21.40;99.90;;;;;;5064319;28;20500;-76
2022/10/06 08:11:04;;;;;;;6.40;2.30;;;21.50;99.90;;;;;;5075517;28;20095;-77
2022/10/06 08:13:33;;;;;;;12.43;2.50;;;21.60;99.90;;;;;;5068734;28;20037;-76
2022/10/06 08:16:09;;;;;;;9.27;3.25;;;21.60;99.90;;;;;;5074641;28;20068;-76
2022/10/06 08:18:35;;;;;;;12.23;2.45;;;21.80;99.90;;;;;;5043663;28;20071;-77
2022/10/06 08:21:14;;;;;;;8.55;2.70;;;21.80;99.90;;;;;;5032667;28;20037;-77
2022/10/06 08:23:41;;;;;;;7.38;2.38;;;21.90;99.90;;;;;;5067981;28;20055;-77
2022/10/06 08:26:10;;;;;;;6.38;2.20;;;22.00;99.90;;;;;;5062068;28;20052;-76
2022/10/06 08:28:37;;;;;;;5.43;2.08;;;22.10;99.90;;;;;;5061433;28;20096;-77
2022/10/06 08:31:05;;;;;;;7.75;2.70;;;22.20;99.90;;;;;;5059923;28;20110;-77
2022/10/06 08:33:34;;;;;;;12.57;2.63;;;22.20;99.90;;;;;;5079261;28;20384;-76
2022/10/06 08:36:07;;;;;;;8.40;2.22;;;22.20;99.90;;;;;;5063340;28;20028;-77
2022/10/06 08:38:33;;;;;;;;;;;22.40;99.90;;;;;;5058756;28;20045;-76
2022/10/06 08:40:59;;;;;;;10.73;2.95;;;22.50;99.90;;;;;;5062678;28;19912;-76
2022/10/06 08:43:25;;;;;;;6.43;2.67;;;22.60;99.90;;;;;;5061737;28;20052;-77
2022/10/06 08:45:58;;;;;;;9.90;2.60;;;22.60;99.90;;;;;;5078736;28;20037;-76
2022/10/06 08:48:27;;;;;;;5.82;2.35;;;22.70;99.90;;;;;;5064966;28;20024;-76
2022/10/06 08:51:05;;;;;;;6.78;2.78;;;22.90;99.90;;;;;;5060178;28;20029;-73
2022/10/06 08:53:46;;;;;;;9.68;3.00;;;23.00;99.90;;;;;;5063079;28;20115;-73
2022/10/06 08:56:43;;;;;;;8.32;2.45;;;23.20;99.90;;;;;;5052007;28;20047;-73
2022/10/06 08:59:11;;;;;;;10.50;3.03;;;23.40;99.90;;;;;;5056977;28;20739;-73
2022/10/06 09:01:46;;;;;;;11.23;2.45;;;23.50;99.90;;;;;;5061465;28;20155;-73
2022/10/06 09:04:29;;;;;;;9.20;2.83;;;24.00;99.90;;;;;;5063055;28;20044;-73
2022/10/06 09:07:03;;;;;;;10.85;2.83;;;24.60;99.90;;;;;;5045016;28;20033;-73
2022/10/06 09:09:53;;;;;;;9.43;2.80;;;24.90;99.90;;;;;;5049107;28;20492;-73
2022/10/06 09:12:42;;;;;;;9.82;2.83;;;25.10;99.90;;;;;;5072652;28;20039;-73
2022/10/06 09:15:53;;;;;;;8.93;3.08;;;25.10;99.90;;;;;;5051527;28;20029;-74
2022/10/06 09:18:42;;;;;;;15.35;3.08;;;25.00;99.90;;;;;;5063510;28;20486;-72
2022/10/06 09:21:15;;;;;;;6.35;2.30;;;24.90;99.90;;;;;;5059682;28;20127;-73
2022/10/06 09:23:46;;;;;;;8.77;2.63;;;24.80;99.90;;;;;;5065325;28;20095;-73
2022/10/06 09:26:15;;;;;;;10.68;3.00;;;24.70;99.90;;;;;;5049573;28;20098;-73
2022/10/06 09:28:45;;;;;;;9.77;3.13;;;24.50;99.90;;;;;;5074451;28;20033;-72
2022/10/06 09:31:21;;;;;;;12.00;3.17;;;24.50;99.90;;;;;;5061514;28;20029;-73
2022/10/06 09:33:53;;;;;;;8.85;2.70;;;24.50;99.90;;;;;;5058308;28;20041;-73
2022/10/06 09:36:19;;;;;;;9.50;2.83;;;24.50;99.90;;;;;;5056909;28;20094;-74
2022/10/06 09:38:55;;;;;;;8.82;2.25;;;24.40;99.90;;;;;;5061387;28;20059;-74
2022/10/06 09:41:39;;;;;;;7.57;2.80;;;24.40;99.90;;;;;;5057435;28;20032;-73
2022/10/06 09:44:20;;;;;;;10.35;2.72;;;24.50;99.90;;;;;;5063458;28;20066;-73
2022/10/06 09:46:46;;;;;;;8.02;2.35;;;24.40;99.90;;;;;;5058142;28;20032;-73
2022/10/06 09:49:22;;;;;;;10.32;2.95;;;24.60;99.90;;;;;;5057790;28;20040;-73
2022/10/06 09:51:58;;;;;;;6.90;2.85;;;24.70;99.90;;;;;;5074710;28;20149;-74
2022/10/06 09:54:25;;;;;;;9.02;2.78;;;24.90;99.90;;;;;;5059596;28;20040;-74
2022/10/06 09:56:52;;;;;;;7.15;2.42;;;24.90;99.90;;;;;;5055310;28;20036;-74
2022/10/06 09:59:21;;;;;;;7.65;2.83;;;25.00;99.90;;;;;;5065953;28;20033;-73
2022/10/06 10:01:52;;;;;;;7.25;3.15;;;25.10;99.90;;;;;;5062682;28;20060;-73
2022/10/06 10:04:31;;;;;;;8.98;2.83;;;25.00;99.90;;;;;;5056387;28;20044;-73
2022/10/06 10:07:23;;;;;;;10.40;2.90;;;25.50;99.90;;;;;;5059175;28;20052;-73
2022/10/06 10:09:50;;;;;;;7.25;2.90;;;25.90;99.90;;;;;;5040432;28;20447;-74
2022/10/06 10:12:24;;;;;;;9.70;3.20;;;25.90;99.90;;;;;;5037810;28;20032;-73
2022/10/06 10:15:11;;;;;;;10.32;3.75;;;26.30;99.90;;;;;;5039796;28;20379;-74
2022/10/06 10:18:02;;;;;;;6.82;2.47;;;26.80;99.90;;;;;;5047763;28;20033;-74
2022/10/06 10:20:33;;;;;;;9.65;2.92;;;26.70;99.90;;;;;;5045684;28;20056;-74
2022/10/06 10:23:24;;;;;;;9.65;2.88;;;26.90;99.90;;;;;;5052334;28;20065;-74
2022/10/06 10:26:02;;;;;;;8.70;2.78;;;26.80;99.90;;;;;;5052551;28;20028;-74
2022/10/06 10:28:49;;;;;;;8.40;3.33;;;27.00;99.90;;;;;;5047254;28;20086;-73
2022/10/06 10:31:34;;;;;;;7.70;3.28;;;26.70;99.90;;;;;;5040264;28;20133;-74
2022/10/06 10:34:21;;;;;;;9.43;2.70;;;26.80;99.90;;;;;;5053728;28;20051;-73
2022/10/06 10:36:56;;;;;;;10.13;3.55;;;27.40;99.90;;;;;;5057155;28;20382;-74
2022/10/06 10:39:36;;;;;;;7.43;4.00;;;27.80;99.90;;;;;;5055509;28;20064;-74
2022/10/06 10:42:10;;;;;;;7.38;2.63;;;27.90;99.90;;;;;;5045140;28;20075;-73
2022/10/06 10:44:41;;;;;;;10.50;3.00;;;27.70;99.90;;;;;;5040757;28;20048;-74
2022/10/06 10:47:24;;;;;;;9.45;3.03;;;27.70;99.90;;;;;;5037319;28;20528;-74
2022/10/06 10:50:42;;;;;;;6.93;2.70;;;27.50;99.90;;;;;;5037716;28;20033;-73
2022/10/06 10:53:22;;;;;;;9.88;3.55;;;28.10;99.90;;;;;;5023662;28;20041;-74
2022/10/06 10:55:49;;;;;;;15.35;3.08;;;28.40;99.90;;;;;;5052142;28;20036;-73
2022/10/06 10:58:37;;;;;;;9.52;2.78;;;28.40;99.90;;;;;;5053818;28;20029;-74
2022/10/06 11:01:28;;;;;;;8.63;2.95;;;28.60;99.90;;;;;;5055725;28;20135;-73
2022/10/06 11:03:55;;;;;;;7.00;2.95;;;28.80;99.90;;;;;;5055672;28;20102;-74
2022/10/06 11:06:42;;;;;;;10.60;3.13;;;29.10;99.90;;;;;;5054891;28;20389;-73
2022/10/06 11:09:36;;;;;;;7.28;2.88;;;28.80;99.90;;;;;;5054350;28;20039;-74
2022/10/06 11:12:14;;;;;;;7.40;3.10;;;28.40;99.90;;;;;;5013774;28;20072;-74
2022/10/06 11:14:58;;;;;;;;;;;28.80;99.90;;;;;;5036946;28;20022;-73
2022/10/06 11:17:49;;;;;;;7.47;2.63;;;29.10;99.90;;;;;;5035209;28;19928;-73
2022/10/06 11:20:22;;;;;;;9.35;2.60;;;29.50;99.90;;;;;;5055196;28;20083;-74
2022/10/06 11:23:05;;;;;;;10.80;3.15;;;29.60;99.90;;;;;;5038483;28;20037;-73
2022/10/06 11:25:58;;;;;;;8.30;3.42;;;29.70;99.90;;;;;;5035810;28;20037;-73
2022/10/06 11:28:28;;;;;;;10.30;3.25;;;30.00;99.90;;;;;;5038199;28;20124;-74
2022/10/06 11:31:26;;;;;;;6.60;2.38;;;29.80;99.90;;;;;;5059232;28;20439;-72
2022/10/06 11:33:54;;;;;;;6.95;3.28;;;29.60;99.90;;;;;;5057508;28;20455;-74
2022/10/06 11:36:38;;;;;;;8.65;3.75;;;29.30;99.90;;;;;;5055119;28;20046;-73
2022/10/06 11:39:25;;;;;;;14.52;3.90;;;29.70;99.90;;;;;;5056532;28;20063;-73
2022/10/06 11:42:19;;;;;;;11.18;4.80;;;29.80;99.90;;;;;;5039573;28;20029;-75
2022/10/06 11:44:50;;;;;;;8.32;4.72;;;30.20;99.90;;;;;;5043163;28;20163;-74
2022/10/06 11:47:22;;;;;;;11.25;4.28;;;30.40;99.90;;;;;;5059244;28;20442;-74
2022/10/06 11:49:50;;;;;;;10.90;4.28;;;30.60;99.90;;;;;;5049255;28;20033;-73
2022/10/06 11:52:16;;;;;;;10.93;4.28;;;30.80;99.90;;;;;;5040146;28;20163;-73
2022/10/06 11:54:42;;;;;;;10.40;5.10;;;30.60;99.90;;;;;;5072096;28;20157;-73
2022/10/06 11:57:23;;;;;;;12.85;5.25;;;31.00;99.90;;;;;;5055891;28;20044;-74
2022/10/06 12:00:16;;;;;;;11.50;4.80;;;30.70;99.90;;;;;;5057974;28;20044;-74
2022/10/06 12:02:45;;;;;;;10.30;5.20;;;30.30;99.90;;;;;;5069394;28;20408;-73
2022/10/06 12:05:14;;;;;;;10.90;5.00;;;30.50;99.90;;;;;;5057364;28;20063;-74
2022/10/06 12:07:55;;;;;;;8.63;4.35;;;30.30;99.90;;;;;;5052984;28;20039;-73
2022/10/06 12:10:27;;;;;;;8.98;3.90;;;30.20;99.90;;;;;;5057569;28;20040;-74
2022/10/06 12:13:08;;;;;;;8.52;4.15;;;30.00;99.90;;;;;;5054652;28;20059;-74
2022/10/06 12:15:35;;;;;;;10.13;4.78;;;30.40;99.90;;;;;;5037701;28;20128;-73
2022/10/06 12:18:28;;;;;;;10.40;3.95;;;30.80;99.90;;;;;;5056528;28;20044;-74
2022/10/06 12:21:10;;;;;;;10.40;4.55;;;30.90;99.90;;;;;;5061321;28;20042;-73
2022/10/06 12:24:00;;;;;;;8.73;4.57;;;31.00;99.70;;;;;;5055613;28;20129;-73
2022/10/06 12:26:48;;;;;;;10.10;4.18;;;30.10;99.90;;;;;;5059028;28;20479;-74
2022/10/06 12:29:19;;;;;;;10.55;5.03;;;29.80;99.90;;;;;;5063893;28;20085;-74
2022/10/06 12:32:02;;;;;;;12.25;5.07;;;30.70;99.90;;;;;;5055338;28;20060;-74
2022/10/06 12:34:53;;;;;;;9.95;4.85;;;30.80;99.90;;;;;;5064588;28;20021;-73
2022/10/06 12:37:34;;;;;;;8.52;4.18;;;31.10;99.90;;;;;;5053961;28;20128;-72
2022/10/06 12:40:40;;;;;;;10.55;4.70;;;31.50;99.80;;;;;;5055100;28;20037;-73
2022/10/06 12:43:19;;;;;;;9.80;4.90;;;31.70;99.20;;;;;;5035379;28;20033;-72
2022/10/06 12:45:54;;;;;;;10.27;6.45;;;31.40;99.30;;;;;;5040783;28;20371;-73
2022/10/06 12:49:01;;;;;;;11.18;4.78;;;31.70;99.20;;;;;;5054928;28;20033;-73
2022/10/06 12:51:43;;;;;;;10.07;4.57;;;31.60;99.00;;;;;;5057974;28;20100;-73
2022/10/06 12:54:39;;;;;;;11.32;5.03;;;32.00;98.80;;;;;;5058538;28;20033;-75
2022/10/06 12:57:15;;;;;;;10.57;5.20;;;31.80;98.90;;;;;;5063762;28;20037;-76
2022/10/06 12:59:41;;;;;;;11.48;5.18;;;32.40;98.60;;;;;;5065195;28;20055;-76
2022/10/06 13:02:08;;;;;;;10.77;4.45;;;32.50;98.20;;;;;;5063137;28;20040;-76
2022/10/06 13:04:55;;;;;;;11.23;4.75;;;32.70;97.80;;;;;;5062017;28;20064;-76
2022/10/06 13:07:29;;;;;;;10.40;4.47;;;33.10;97.40;;;;;;5063080;28;20129;-76
2022/10/06 13:10:13;;;;;;;8.45;4.28;;;33.30;96.90;;;;;;5064771;28;20480;-76
2022/10/06 13:12:45;;;;;;;9.85;3.67;;;33.30;96.60;;;;;;5052628;28;20104;-76
2022/10/06 13:15:28;;;;;;;10.50;4.68;;;33.30;96.60;;;;;;5079190;28;20064;-76
2022/10/06 13:18:09;;;;;;;10.35;4.43;;;33.50;96.40;;;;;;5066069;28;20709;-76
2022/10/06 13:20:56;;;;;;;11.25;5.85;;;33.70;96.10;;;;;;5044128;28;20068;-76
2022/10/06 13:23:29;;;;;;;9.27;4.85;;;33.40;96.10;;;;;;5074459;28;20115;-76